sensor_id;sensor_type;location;lat;lon;timestamp;P1;durP1;ratioP1;P2;durP2;ratioP2
41263;SDS011;26998;48.714;9.414;2023-10-09T00:01:25;5.03;;;3.15;;
41263;SDS011;26998;48.714;9.414;2023-10-09T00:03:53;8.43;;;3.70;;
41263;SDS011;26998;48.714;9.414;2023-10-09T00:06:21;6.45;;;3.38;;
41263;SDS011;26998;48.714;9.414;2023-10-09T00:08:48;5.28;;;3.00;;
41263;SDS011;26998;48.714;9.414;2023-10-09T00:11:14;7.93;;;3.53;;
41263;SDS011;26998;48.714;9.414;2023-10-09T00:13:41;7.20;;;3.00;;
41263;SDS011;26998;48.714;9.414;2023-10-09T00:16:09;8.82;;;3.58;;
41263;SDS011;26998;48.714;9.414;2023-10-09T00:18:35;6.10;;;3.17;;
41263;SDS011;26998;48.714;9.414;2023-10-09T00:21:02;6.97;;;2.95;;
41263;SDS011;26998;48.714;9.414;2023-10-09T00:23:29;6.18;;;3.10;;
41263;SDS011;26998;48.714;9.414;2023-10-09T00:25:55;9.60;;;3.85;;
41263;SDS011;26998;48.714;9.414;2023-10-09T00:28:22;10.20;;;3.83;;
41263;SDS011;26998;48.714;9.414;2023-10-09T00:30:48;8.32;;;4.22;;
41263;SDS011;26998;48.714;9.414;2023-10-09T00:33:14;5.13;;;3.33;;
41263;SDS011;26998;48.714;9.414;2023-10-09T00:35:41;5.45;;;3.33;;
41263;SDS011;26998;48.714;9.414;2023-10-09T00:38:08;6.30;;;3.58;;
41263;SDS011;26998;48.714;9.414;2023-10-09T00:40:35;6.45;;;2.92;;
41263;SDS011;26998;48.714;9.414;2023-10-09T00:43:01;4.97;;;2.97;;
41263;SDS011;26998;48.714;9.414;2023-10-09T00:45:28;6.68;;;3.95;;
41263;SDS011;26998;48.714;9.414;2023-10-09T00:47:55;11.55;;;4.10;;
41263;SDS011;26998;48.714;9.414;2023-10-09T00:50:21;4.07;;;3.00;;
41263;SDS011;26998;48.714;9.414;2023-10-09T00:52:54;5.25;;;2.75;;
41263;SDS011;26998;48.714;9.414;2023-10-09T00:55:23;5.50;;;2.92;;
41263;SDS011;26998;48.714;9.414;2023-10-09T00:57:51;5.22;;;3.05;;
41263;SDS011;26998;48.714;9.414;2023-10-09T01:00:17;7.28;;;3.60;;
41263;SDS011;26998;48.714;9.414;2023-10-09T01:02:44;8.60;;;3.40;;
41263;SDS011;26998;48.714;9.414;2023-10-09T01:05:13;11.10;;;3.85;;
41263;SDS011;26998;48.714;9.414;2023-10-09T01:07:39;6.70;;;3.83;;
41263;SDS011;26998;48.714;9.414;2023-10-09T01:10:08;5.95;;;3.45;;
41263;SDS011;26998;48.714;9.414;2023-10-09T01:12:35;6.93;;;3.75;;
41263;SDS011;26998;48.714;9.414;2023-10-09T01:15:01;7.07;;;3.60;;
41263;SDS011;26998;48.714;9.414;2023-10-09T01:17:28;5.78;;;3.67;;
41263;SDS011;26998;48.714;9.414;2023-10-09T01:19:55;8.52;;;4.22;;
41263;SDS011;26998;48.714;9.414;2023-10-09T01:22:21;6.43;;;3.72;;
41263;SDS011;26998;48.714;9.414;2023-10-09T01:24:49;5.30;;;3.33;;
41263;SDS011;26998;48.714;9.414;2023-10-09T01:27:16;9.30;;;4.25;;
41263;SDS011;26998;48.714;9.414;2023-10-09T01:29:43;6.47;;;3.38;;
41263;SDS011;26998;48.714;9.414;2023-10-09T01:32:10;6.53;;;2.80;;
41263;SDS011;26998;48.714;9.414;2023-10-09T01:34:36;5.63;;;3.10;;
41263;SDS011;26998;48.714;9.414;2023-10-09T01:37:02;4.90;;;3.22;;
41263;SDS011;26998;48.714;9.414;2023-10-09T01:39:29;5.35;;;3.22;;
41263;SDS011;26998;48.714;9.414;2023-10-09T01:41:56;2.83;;;2.55;;
41263;SDS011;26998;48.714;9.414;2023-10-09T01:44:23;7.45;;;3.72;;
41263;SDS011;26998;48.714;9.414;2023-10-09T01:46:50;8.18;;;3.75;;
41263;SDS011;26998;48.714;9.414;2023-10-09T01:49:17;4.93;;;2.50;;
41263;SDS011;26998;48.714;9.414;2023-10-09T01:51:43;6.47;;;3.25;;
41263;SDS011;26998;48.714;9.414;2023-10-09T01:54:10;9.05;;;3.75;;
41263;SDS011;26998;48.714;9.414;2023-10-09T01:56:38;8.95;;;3.80;;
41263;SDS011;26998;48.714;9.414;2023-10-09T01:59:04;6.13;;;3.05;;
41263;SDS011;26998;48.714;9.414;2023-10-09T02:01:31;8.27;;;3.25;;
41263;SDS011;26998;48.714;9.414;2023-10-09T02:03:58;6.00;;;2.72;;
41263;SDS011;26998;48.714;9.414;2023-10-09T02:06:24;6.60;;;3.30;;
41263;SDS011;26998;48.714;9.414;2023-10-09T02:09:00;5.90;;;3.17;;
41263;SDS011;26998;48.714;9.414;2023-10-09T02:11:29;9.50;;;3.72;;
41263;SDS011;26998;48.714;9.414;2023-10-09T02:13:56;5.15;;;3.13;;
41263;SDS011;26998;48.714;9.414;2023-10-09T02:16:22;6.55;;;3.45;;
41263;SDS011;26998;48.714;9.414;2023-10-09T02:18:49;9.00;;;4.00;;
41263;SDS011;26998;48.714;9.414;2023-10-09T02:21:15;7.05;;;3.28;;
41263;SDS011;26998;48.714;9.414;2023-10-09T02:23:42;7.85;;;3.30;;
41263;SDS011;26998;48.714;9.414;2023-10-09T02:26:09;8.38;;;3.50;;
41263;SDS011;26998;48.714;9.414;2023-10-09T02:28:37;8.07;;;3.85;;
41263;SDS011;26998;48.714;9.414;2023-10-09T02:31:10;7.47;;;3.88;;
41263;SDS011;26998;48.714;9.414;2023-10-09T02:33:38;6.68;;;3.60;;
41263;SDS011;26998;48.714;9.414;2023-10-09T02:36:08;8.48;;;2.95;;
41263;SDS011;26998;48.714;9.414;2023-10-09T02:41:05;4.57;;;3.45;;
41263;SDS011;26998;48.714;9.414;2023-10-09T02:43:32;5.45;;;3.10;;
41263;SDS011;26998;48.714;9.414;2023-10-09T02:46:03;5.10;;;3.10;;
41263;SDS011;26998;48.714;9.414;2023-10-09T02:48:30;10.20;;;4.38;;
41263;SDS011;26998;48.714;9.414;2023-10-09T02:50:59;4.55;;;3.30;;
41263;SDS011;26998;48.714;9.414;2023-10-09T02:53:26;8.02;;;2.78;;
41263;SDS011;26998;48.714;9.414;2023-10-09T02:55:54;7.28;;;3.28;;
41263;SDS011;26998;48.714;9.414;2023-10-09T02:58:20;9.43;;;4.07;;
41263;SDS011;26998;48.714;9.414;2023-10-09T03:00:47;4.78;;;3.00;;
41263;SDS011;26998;48.714;9.414;2023-10-09T03:03:15;7.93;;;3.38;;
41263;SDS011;26998;48.714;9.414;2023-10-09T03:05:41;8.90;;;4.65;;
41263;SDS011;26998;48.714;9.414;2023-10-09T03:08:08;7.25;;;3.58;;
41263;SDS011;26998;48.714;9.414;2023-10-09T03:10:36;4.35;;;2.95;;
41263;SDS011;26998;48.714;9.414;2023-10-09T03:13:02;8.13;;;3.92;;
41263;SDS011;26998;48.714;9.414;2023-10-09T03:15:29;7.97;;;3.35;;
41263;SDS011;26998;48.714;9.414;2023-10-09T03:17:57;9.80;;;3.85;;
41263;SDS011;26998;48.714;9.414;2023-10-09T03:20:23;5.22;;;2.53;;
41263;SDS011;26998;48.714;9.414;2023-10-09T03:22:50;8.45;;;3.97;;
41263;SDS011;26998;48.714;9.414;2023-10-09T03:25:16;5.90;;;3.05;;
41263;SDS011;26998;48.714;9.414;2023-10-09T03:27:44;5.68;;;2.65;;
41263;SDS011;26998;48.714;9.414;2023-10-09T03:30:12;9.02;;;3.83;;
41263;SDS011;26998;48.714;9.414;2023-10-09T03:32:40;6.13;;;2.90;;
41263;SDS011;26998;48.714;9.414;2023-10-09T03:35:10;7.05;;;2.80;;
41263;SDS011;26998;48.714;9.414;2023-10-09T03:37:40;4.63;;;3.25;;
41263;SDS011;26998;48.714;9.414;2023-10-09T03:40:07;5.73;;;2.70;;
41263;SDS011;26998;48.714;9.414;2023-10-09T03:42:33;8.18;;;3.33;;
41263;SDS011;26998;48.714;9.414;2023-10-09T03:45:01;4.47;;;2.83;;
41263;SDS011;26998;48.714;9.414;2023-10-09T03:47:27;8.50;;;2.85;;
41263;SDS011;26998;48.714;9.414;2023-10-09T03:49:56;9.57;;;3.65;;
41263;SDS011;26998;48.714;9.414;2023-10-09T03:52:22;9.18;;;3.47;;
41263;SDS011;26998;48.714;9.414;2023-10-09T03:54:50;10.52;;;3.55;;
41263;SDS011;26998;48.714;9.414;2023-10-09T03:57:17;5.35;;;2.90;;
41263;SDS011;26998;48.714;9.414;2023-10-09T03:59:44;7.28;;;3.50;;
41263;SDS011;26998;48.714;9.414;2023-10-09T04:02:14;7.60;;;3.50;;
41263;SDS011;26998;48.714;9.414;2023-10-09T04:04:41;6.20;;;3.78;;
41263;SDS011;26998;48.714;9.414;2023-10-09T04:07:08;5.63;;;3.33;;
41263;SDS011;26998;48.714;9.414;2023-10-09T04:09:36;9.63;;;3.30;;
41263;SDS011;26998;48.714;9.414;2023-10-09T04:12:03;11.02;;;3.83;;
41263;SDS011;26998;48.714;9.414;2023-10-09T04:14:29;8.20;;;4.03;;
41263;SDS011;26998;48.714;9.414;2023-10-09T04:16:56;6.50;;;3.63;;
41263;SDS011;26998;48.714;9.414;2023-10-09T04:19:28;5.93;;;3.17;;
41263;SDS011;26998;48.714;9.414;2023-10-09T04:21:55;6.30;;;3.53;;
41263;SDS011;26998;48.714;9.414;2023-10-09T04:24:23;9.55;;;3.85;;
41263;SDS011;26998;48.714;9.414;2023-10-09T04:26:49;10.93;;;3.53;;
41263;SDS011;26998;48.714;9.414;2023-10-09T04:29:16;5.43;;;3.03;;
41263;SDS011;26998;48.714;9.414;2023-10-09T04:31:43;7.78;;;3.92;;
41263;SDS011;26998;48.714;9.414;2023-10-09T04:34:13;7.25;;;2.95;;
41263;SDS011;26998;48.714;9.414;2023-10-09T04:36:41;6.15;;;3.63;;
41263;SDS011;26998;48.714;9.414;2023-10-09T04:39:08;5.93;;;3.92;;
41263;SDS011;26998;48.714;9.414;2023-10-09T04:41:35;6.45;;;3.90;;
41263;SDS011;26998;48.714;9.414;2023-10-09T04:44:01;11.93;;;4.75;;
41263;SDS011;26998;48.714;9.414;2023-10-09T04:46:27;3.90;;;2.83;;
41263;SDS011;26998;48.714;9.414;2023-10-09T04:48:54;5.90;;;3.30;;
41263;SDS011;26998;48.714;9.414;2023-10-09T04:51:24;9.32;;;3.65;;
41263;SDS011;26998;48.714;9.414;2023-10-09T04:53:51;7.90;;;3.72;;
41263;SDS011;26998;48.714;9.414;2023-10-09T04:56:18;7.88;;;3.40;;
41263;SDS011;26998;48.714;9.414;2023-10-09T04:58:45;7.35;;;3.75;;
41263;SDS011;26998;48.714;9.414;2023-10-09T05:01:11;6.43;;;3.70;;
41263;SDS011;26998;48.714;9.414;2023-10-09T05:03:39;5.72;;;2.75;;
41263;SDS011;26998;48.714;9.414;2023-10-09T05:06:06;8.23;;;3.72;;
41263;SDS011;26998;48.714;9.414;2023-10-09T05:08:36;7.20;;;4.07;;
41263;SDS011;26998;48.714;9.414;2023-10-09T05:11:03;5.53;;;3.88;;
41263;SDS011;26998;48.714;9.414;2023-10-09T05:13:30;8.48;;;3.63;;
41263;SDS011;26998;48.714;9.414;2023-10-09T05:15:58;4.82;;;3.38;;
41263;SDS011;26998;48.714;9.414;2023-10-09T05:18:25;9.35;;;3.67;;
41263;SDS011;26998;48.714;9.414;2023-10-09T05:20:52;7.63;;;3.75;;
41263;SDS011;26998;48.714;9.414;2023-10-09T05:23:20;6.13;;;3.65;;
41263;SDS011;26998;48.714;9.414;2023-10-09T05:25:49;10.48;;;3.53;;
41263;SDS011;26998;48.714;9.414;2023-10-09T05:28:16;6.25;;;3.70;;
41263;SDS011;26998;48.714;9.414;2023-10-09T05:30:46;6.72;;;3.03;;
41263;SDS011;26998;48.714;9.414;2023-10-09T05:33:14;8.95;;;4.13;;
41263;SDS011;26998;48.714;9.414;2023-10-09T05:35:41;4.93;;;3.50;;
41263;SDS011;26998;48.714;9.414;2023-10-09T05:38:08;7.85;;;3.70;;
41263;SDS011;26998;48.714;9.414;2023-10-09T05:40:37;6.05;;;3.88;;
41263;SDS011;26998;48.714;9.414;2023-10-09T05:43:06;4.63;;;2.63;;
41263;SDS011;26998;48.714;9.414;2023-10-09T05:45:35;12.00;;;3.67;;
41263;SDS011;26998;48.714;9.414;2023-10-09T05:48:02;4.68;;;3.05;;
41263;SDS011;26998;48.714;9.414;2023-10-09T05:50:31;4.90;;;2.97;;
41263;SDS011;26998;48.714;9.414;2023-10-09T05:52:58;5.60;;;2.97;;
41263;SDS011;26998;48.714;9.414;2023-10-09T05:55:25;6.85;;;3.58;;
41263;SDS011;26998;48.714;9.414;2023-10-09T05:57:56;9.05;;;3.70;;
41263;SDS011;26998;48.714;9.414;2023-10-09T06:00:23;7.38;;;4.03;;
41263;SDS011;26998;48.714;9.414;2023-10-09T06:02:52;10.77;;;4.28;;
41263;SDS011;26998;48.714;9.414;2023-10-09T06:05:27;10.05;;;4.53;;
41263;SDS011;26998;48.714;9.414;2023-10-09T06:07:56;6.97;;;3.25;;
41263;SDS011;26998;48.714;9.414;2023-10-09T06:10:23;9.57;;;4.25;;
41263;SDS011;26998;48.714;9.414;2023-10-09T06:12:51;5.43;;;3.13;;
41263;SDS011;26998;48.714;9.414;2023-10-09T06:15:22;11.73;;;4.28;;
41263;SDS011;26998;48.714;9.414;2023-10-09T06:17:49;9.52;;;4.13;;
41263;SDS011;26998;48.714;9.414;2023-10-09T06:20:16;9.57;;;3.95;;
41263;SDS011;26998;48.714;9.414;2023-10-09T06:22:45;10.95;;;3.92;;
41263;SDS011;26998;48.714;9.414;2023-10-09T06:25:11;10.13;;;4.03;;
41263;SDS011;26998;48.714;9.414;2023-10-09T06:27:38;7.40;;;4.13;;
41263;SDS011;26998;48.714;9.414;2023-10-09T06:30:05;7.40;;;4.10;;
41263;SDS011;26998;48.714;9.414;2023-10-09T06:32:34;9.02;;;3.88;;
41263;SDS011;26998;48.714;9.414;2023-10-09T06:35:02;12.43;;;5.07;;
41263;SDS011;26998;48.714;9.414;2023-10-09T06:37:29;5.97;;;3.42;;
41263;SDS011;26998;48.714;9.414;2023-10-09T06:39:56;7.53;;;3.35;;
41263;SDS011;26998;48.714;9.414;2023-10-09T06:42:23;13.07;;;4.30;;
41263;SDS011;26998;48.714;9.414;2023-10-09T06:44:51;8.82;;;3.83;;
41263;SDS011;26998;48.714;9.414;2023-10-09T06:47:17;6.57;;;3.25;;
41263;SDS011;26998;48.714;9.414;2023-10-09T06:49:44;11.45;;;3.92;;
41263;SDS011;26998;48.714;9.414;2023-10-09T06:52:11;7.47;;;4.13;;
41263;SDS011;26998;48.714;9.414;2023-10-09T06:54:39;7.20;;;3.92;;
41263;SDS011;26998;48.714;9.414;2023-10-09T06:57:05;7.38;;;4.22;;
41263;SDS011;26998;48.714;9.414;2023-10-09T06:59:32;7.80;;;3.42;;
41263;SDS011;26998;48.714;9.414;2023-10-09T07:02:03;8.65;;;4.57;;
41263;SDS011;26998;48.714;9.414;2023-10-09T07:04:29;10.07;;;4.68;;
41263;SDS011;26998;48.714;9.414;2023-10-09T07:07:02;6.13;;;3.80;;
41263;SDS011;26998;48.714;9.414;2023-10-09T07:09:29;9.05;;;3.83;;
41263;SDS011;26998;48.714;9.414;2023-10-09T07:11:56;7.05;;;3.83;;
41263;SDS011;26998;48.714;9.414;2023-10-09T07:14:30;7.50;;;3.40;;
41263;SDS011;26998;48.714;9.414;2023-10-09T07:17:00;8.45;;;4.13;;
41263;SDS011;26998;48.714;9.414;2023-10-09T07:19:33;8.63;;;3.70;;
41263;SDS011;26998;48.714;9.414;2023-10-09T07:22:01;6.68;;;4.05;;
41263;SDS011;26998;48.714;9.414;2023-10-09T07:24:30;9.25;;;4.53;;
41263;SDS011;26998;48.714;9.414;2023-10-09T07:26:57;10.23;;;4.47;;
41263;SDS011;26998;48.714;9.414;2023-10-09T07:29:24;7.20;;;4.22;;
41263;SDS011;26998;48.714;9.414;2023-10-09T07:31:56;8.52;;;3.85;;
41263;SDS011;26998;48.714;9.414;2023-10-09T07:34:28;9.68;;;4.68;;
41263;SDS011;26998;48.714;9.414;2023-10-09T07:36:55;10.10;;;5.07;;
41263;SDS011;26998;48.714;9.414;2023-10-09T07:39:23;8.93;;;4.10;;
41263;SDS011;26998;48.714;9.414;2023-10-09T07:41:51;49.58;;;15.43;;
41263;SDS011;26998;48.714;9.414;2023-10-09T07:44:18;60.60;;;18.33;;
41263;SDS011;26998;48.714;9.414;2023-10-09T07:46:50;24.90;;;10.77;;
41263;SDS011;26998;48.714;9.414;2023-10-09T07:49:17;14.77;;;7.18;;
41263;SDS011;26998;48.714;9.414;2023-10-09T07:51:44;10.55;;;6.15;;
41263;SDS011;26998;48.714;9.414;2023-10-09T07:54:17;6.18;;;4.63;;
41263;SDS011;26998;48.714;9.414;2023-10-09T07:56:48;8.13;;;5.00;;
41263;SDS011;26998;48.714;9.414;2023-10-09T07:59:15;8.25;;;3.72;;
41263;SDS011;26998;48.714;9.414;2023-10-09T08:01:47;8.30;;;4.25;;
41263;SDS011;26998;48.714;9.414;2023-10-09T08:04:16;5.55;;;3.40;;
41263;SDS011;26998;48.714;9.414;2023-10-09T08:06:56;7.10;;;3.88;;
41263;SDS011;26998;48.714;9.414;2023-10-09T08:09:43;9.88;;;4.00;;
41263;SDS011;26998;48.714;9.414;2023-10-09T08:12:10;17.88;;;3.80;;
41263;SDS011;26998;48.714;9.414;2023-10-09T08:14:36;7.43;;;4.30;;
41263;SDS011;26998;48.714;9.414;2023-10-09T08:17:03;11.32;;;3.78;;
41263;SDS011;26998;48.714;9.414;2023-10-09T08:19:30;7.60;;;3.47;;
41263;SDS011;26998;48.714;9.414;2023-10-09T08:22:01;9.80;;;4.38;;
41263;SDS011;26998;48.714;9.414;2023-10-09T08:24:30;6.57;;;3.13;;
41263;SDS011;26998;48.714;9.414;2023-10-09T08:26:58;9.75;;;2.90;;
41263;SDS011;26998;48.714;9.414;2023-10-09T08:29:26;10.43;;;3.85;;
41263;SDS011;26998;48.714;9.414;2023-10-09T08:31:54;8.38;;;3.25;;
41263;SDS011;26998;48.714;9.414;2023-10-09T08:34:21;6.40;;;3.05;;
41263;SDS011;26998;48.714;9.414;2023-10-09T08:37:08;6.43;;;3.08;;
41263;SDS011;26998;48.714;9.414;2023-10-09T08:39:40;7.60;;;3.38;;
41263;SDS011;26998;48.714;9.414;2023-10-09T08:42:10;12.32;;;3.95;;
41263;SDS011;26998;48.714;9.414;2023-10-09T08:44:40;7.53;;;3.42;;
41263;SDS011;26998;48.714;9.414;2023-10-09T08:47:08;11.68;;;3.45;;
41263;SDS011;26998;48.714;9.414;2023-10-09T08:49:35;8.90;;;3.20;;
41263;SDS011;26998;48.714;9.414;2023-10-09T08:52:03;8.52;;;4.35;;
41263;SDS011;26998;48.714;9.414;2023-10-09T08:54:30;8.82;;;3.00;;
41263;SDS011;26998;48.714;9.414;2023-10-09T08:56:56;4.35;;;2.55;;
41263;SDS011;26998;48.714;9.414;2023-10-09T08:59:23;5.53;;;3.38;;
41263;SDS011;26998;48.714;9.414;2023-10-09T09:01:50;8.80;;;3.17;;
41263;SDS011;26998;48.714;9.414;2023-10-09T09:04:33;11.10;;;3.47;;
41263;SDS011;26998;48.714;9.414;2023-10-09T09:07:04;5.50;;;2.40;;
41263;SDS011;26998;48.714;9.414;2023-10-09T09:09:54;7.38;;;2.53;;
41263;SDS011;26998;48.714;9.414;2023-10-09T09:12:23;8.10;;;3.00;;
41263;SDS011;26998;48.714;9.414;2023-10-09T09:14:57;7.82;;;3.38;;
41263;SDS011;26998;48.714;9.414;2023-10-09T09:17:29;9.35;;;2.92;;
41263;SDS011;26998;48.714;9.414;2023-10-09T09:19:59;8.98;;;3.35;;
41263;SDS011;26998;48.714;9.414;2023-10-09T09:22:28;6.90;;;2.47;;
41263;SDS011;26998;48.714;9.414;2023-10-09T09:25:18;8.73;;;3.92;;
41263;SDS011;26998;48.714;9.414;2023-10-09T09:27:47;8.07;;;2.33;;
41263;SDS011;26998;48.714;9.414;2023-10-09T09:30:24;5.90;;;2.78;;
41263;SDS011;26998;48.714;9.414;2023-10-09T09:32:54;5.78;;;2.40;;
41263;SDS011;26998;48.714;9.414;2023-10-09T09:35:21;7.60;;;2.70;;
41263;SDS011;26998;48.714;9.414;2023-10-09T09:37:53;7.30;;;3.10;;
41263;SDS011;26998;48.714;9.414;2023-10-09T09:40:20;12.18;;;3.65;;
41263;SDS011;26998;48.714;9.414;2023-10-09T09:42:47;4.72;;;2.55;;
41263;SDS011;26998;48.714;9.414;2023-10-09T09:45:17;6.60;;;3.25;;
41263;SDS011;26998;48.714;9.414;2023-10-09T09:47:47;9.27;;;3.47;;
41263;SDS011;26998;48.714;9.414;2023-10-09T09:50:15;6.47;;;2.97;;
41263;SDS011;26998;48.714;9.414;2023-10-09T09:52:42;8.60;;;3.35;;
41263;SDS011;26998;48.714;9.414;2023-10-09T09:55:12;6.63;;;2.45;;
41263;SDS011;26998;48.714;9.414;2023-10-09T09:57:39;5.85;;;3.20;;
41263;SDS011;26998;48.714;9.414;2023-10-09T10:00:08;10.00;;;3.25;;
41263;SDS011;26998;48.714;9.414;2023-10-09T10:02:39;7.07;;;3.28;;
41263;SDS011;26998;48.714;9.414;2023-10-09T10:05:09;5.82;;;3.08;;
41263;SDS011;26998;48.714;9.414;2023-10-09T10:07:42;11.63;;;4.43;;
41263;SDS011;26998;48.714;9.414;2023-10-09T10:10:33;5.43;;;2.80;;
41263;SDS011;26998;48.714;9.414;2023-10-09T10:13:01;9.07;;;3.30;;
41263;SDS011;26998;48.714;9.414;2023-10-09T10:18:24;5.40;;;3.65;;
41263;SDS011;26998;48.714;9.414;2023-10-09T10:21:14;6.03;;;2.80;;
41263;SDS011;26998;48.714;9.414;2023-10-09T10:23:41;7.95;;;2.75;;
41263;SDS011;26998;48.714;9.414;2023-10-09T10:26:16;9.88;;;2.53;;
41263;SDS011;26998;48.714;9.414;2023-10-09T10:29:06;8.50;;;2.88;;
41263;SDS011;26998;48.714;9.414;2023-10-09T10:31:52;5.43;;;2.13;;
41263;SDS011;26998;48.714;9.414;2023-10-09T10:34:52;5.10;;;2.03;;
41263;SDS011;26998;48.714;9.414;2023-10-09T10:37:21;8.13;;;2.78;;
41263;SDS011;26998;48.714;9.414;2023-10-09T10:40:01;10.70;;;3.35;;
41263;SDS011;26998;48.714;9.414;2023-10-09T10:42:30;6.63;;;2.30;;
41263;SDS011;26998;48.714;9.414;2023-10-09T10:44:56;9.90;;;2.63;;
41263;SDS011;26998;48.714;9.414;2023-10-09T10:47:25;10.15;;;2.85;;
41263;SDS011;26998;48.714;9.414;2023-10-09T10:49:54;6.25;;;2.33;;
41263;SDS011;26998;48.714;9.414;2023-10-09T10:52:22;4.72;;;2.03;;
41263;SDS011;26998;48.714;9.414;2023-10-09T10:54:49;3.05;;;1.70;;
41263;SDS011;26998;48.714;9.414;2023-10-09T10:57:21;5.07;;;2.05;;
41263;SDS011;26998;48.714;9.414;2023-10-09T10:59:49;3.80;;;1.73;;
41263;SDS011;26998;48.714;9.414;2023-10-09T11:02:16;6.05;;;2.95;;
41263;SDS011;26998;48.714;9.414;2023-10-09T11:04:48;5.93;;;2.38;;
41263;SDS011;26998;48.714;9.414;2023-10-09T11:07:16;4.88;;;2.15;;
41263;SDS011;26998;48.714;9.414;2023-10-09T11:09:49;5.03;;;2.03;;
41263;SDS011;26998;48.714;9.414;2023-10-09T11:12:18;6.15;;;2.88;;
41263;SDS011;26998;48.714;9.414;2023-10-09T11:14:45;8.35;;;2.15;;
41263;SDS011;26998;48.714;9.414;2023-10-09T11:17:16;10.55;;;3.35;;
41263;SDS011;26998;48.714;9.414;2023-10-09T11:19:43;5.18;;;2.60;;
41263;SDS011;26998;48.714;9.414;2023-10-09T11:22:11;5.75;;;2.20;;
41263;SDS011;26998;48.714;9.414;2023-10-09T11:24:38;8.15;;;2.33;;
41263;SDS011;26998;48.714;9.414;2023-10-09T11:27:07;4.32;;;2.42;;
41263;SDS011;26998;48.714;9.414;2023-10-09T11:29:38;4.47;;;2.28;;
41263;SDS011;26998;48.714;9.414;2023-10-09T11:32:19;4.22;;;2.08;;
41263;SDS011;26998;48.714;9.414;2023-10-09T11:34:47;7.13;;;1.92;;
41263;SDS011;26998;48.714;9.414;2023-10-09T11:37:20;6.28;;;2.92;;
41263;SDS011;26998;48.714;9.414;2023-10-09T11:39:49;6.43;;;2.53;;
41263;SDS011;26998;48.714;9.414;2023-10-09T11:42:19;9.20;;;3.10;;
41263;SDS011;26998;48.714;9.414;2023-10-09T11:44:51;4.80;;;2.42;;
41263;SDS011;26998;48.714;9.414;2023-10-09T11:47:17;8.85;;;3.22;;
41263;SDS011;26998;48.714;9.414;2023-10-09T11:49:50;3.53;;;1.70;;
41263;SDS011;26998;48.714;9.414;2023-10-09T11:52:24;7.20;;;2.55;;
41263;SDS011;26998;48.714;9.414;2023-10-09T11:54:50;6.20;;;2.33;;
41263;SDS011;26998;48.714;9.414;2023-10-09T11:57:17;5.03;;;2.78;;
41263;SDS011;26998;48.714;9.414;2023-10-09T11:59:48;7.18;;;3.13;;
41263;SDS011;26998;48.714;9.414;2023-10-09T12:02:16;4.22;;;1.85;;
41263;SDS011;26998;48.714;9.414;2023-10-09T12:04:45;11.95;;;2.63;;
41263;SDS011;26998;48.714;9.414;2023-10-09T12:07:14;8.55;;;2.67;;
41263;SDS011;26998;48.714;9.414;2023-10-09T12:09:46;9.10;;;3.20;;
41263;SDS011;26998;48.714;9.414;2023-10-09T12:12:13;8.57;;;2.80;;
41263;SDS011;26998;48.714;9.414;2023-10-09T12:14:40;7.53;;;2.72;;
41263;SDS011;26998;48.714;9.414;2023-10-09T12:17:07;4.97;;;2.25;;
41263;SDS011;26998;48.714;9.414;2023-10-09T12:19:35;6.07;;;2.20;;
41263;SDS011;26998;48.714;9.414;2023-10-09T12:22:06;9.35;;;2.85;;
41263;SDS011;26998;48.714;9.414;2023-10-09T12:24:34;8.15;;;2.50;;
41263;SDS011;26998;48.714;9.414;2023-10-09T12:27:01;7.75;;;3.25;;
41263;SDS011;26998;48.714;9.414;2023-10-09T12:29:27;6.85;;;2.75;;
41263;SDS011;26998;48.714;9.414;2023-10-09T12:31:55;8.80;;;2.80;;
41263;SDS011;26998;48.714;9.414;2023-10-09T12:34:22;3.38;;;2.00;;
41263;SDS011;26998;48.714;9.414;2023-10-09T12:36:48;5.53;;;2.75;;
41263;SDS011;26998;48.714;9.414;2023-10-09T12:39:16;5.28;;;2.35;;
41263;SDS011;26998;48.714;9.414;2023-10-09T12:44:14;7.03;;;2.53;;
41263;SDS011;26998;48.714;9.414;2023-10-09T12:46:41;9.40;;;2.65;;
41263;SDS011;26998;48.714;9.414;2023-10-09T12:49:08;5.45;;;2.10;;
41263;SDS011;26998;48.714;9.414;2023-10-09T12:51:35;4.43;;;2.67;;
41263;SDS011;26998;48.714;9.414;2023-10-09T12:54:02;6.32;;;2.33;;
41263;SDS011;26998;48.714;9.414;2023-10-09T12:56:29;8.02;;;1.98;;
41263;SDS011;26998;48.714;9.414;2023-10-09T12:58:55;7.63;;;2.45;;
41263;SDS011;26998;48.714;9.414;2023-10-09T13:01:23;8.48;;;2.60;;
41263;SDS011;26998;48.714;9.414;2023-10-09T13:03:50;4.82;;;1.83;;
41263;SDS011;26998;48.714;9.414;2023-10-09T13:06:20;4.93;;;1.58;;
41263;SDS011;26998;48.714;9.414;2023-10-09T13:08:47;5.43;;;1.90;;
41263;SDS011;26998;48.714;9.414;2023-10-09T13:11:13;5.60;;;2.50;;
41263;SDS011;26998;48.714;9.414;2023-10-09T13:13:40;6.88;;;2.65;;
41263;SDS011;26998;48.714;9.414;2023-10-09T13:16:12;8.32;;;2.20;;
41263;SDS011;26998;48.714;9.414;2023-10-09T13:18:41;6.35;;;2.80;;
41263;SDS011;26998;48.714;9.414;2023-10-09T13:21:08;9.73;;;2.30;;
41263;SDS011;26998;48.714;9.414;2023-10-09T13:23:36;5.30;;;2.58;;
41263;SDS011;26998;48.714;9.414;2023-10-09T13:26:03;9.40;;;2.70;;
41263;SDS011;26998;48.714;9.414;2023-10-09T13:28:37;7.00;;;3.00;;
41263;SDS011;26998;48.714;9.414;2023-10-09T13:31:04;17.63;;;4.43;;
41263;SDS011;26998;48.714;9.414;2023-10-09T13:33:31;10.10;;;2.47;;
41263;SDS011;26998;48.714;9.414;2023-10-09T13:35:58;5.65;;;3.20;;
41263;SDS011;26998;48.714;9.414;2023-10-09T13:38:24;6.30;;;2.70;;
41263;SDS011;26998;48.714;9.414;2023-10-09T13:40:58;14.70;;;5.25;;
41263;SDS011;26998;48.714;9.414;2023-10-09T13:43:25;9.50;;;2.83;;
41263;SDS011;26998;48.714;9.414;2023-10-09T13:45:53;8.55;;;3.20;;
41263;SDS011;26998;48.714;9.414;2023-10-09T13:48:20;8.68;;;2.97;;
41263;SDS011;26998;48.714;9.414;2023-10-09T13:50:47;10.38;;;3.05;;
41263;SDS011;26998;48.714;9.414;2023-10-09T13:53:14;6.25;;;2.33;;
41263;SDS011;26998;48.714;9.414;2023-10-09T13:55:41;11.55;;;2.67;;
41263;SDS011;26998;48.714;9.414;2023-10-09T13:58:07;3.40;;;2.00;;
41263;SDS011;26998;48.714;9.414;2023-10-09T14:00:34;9.20;;;2.88;;
41263;SDS011;26998;48.714;9.414;2023-10-09T14:03:02;8.38;;;2.47;;
41263;SDS011;26998;48.714;9.414;2023-10-09T14:05:28;8.13;;;2.10;;
41263;SDS011;26998;48.714;9.414;2023-10-09T14:07:55;7.88;;;3.13;;
41263;SDS011;26998;48.714;9.414;2023-10-09T14:10:25;7.45;;;2.22;;
41263;SDS011;26998;48.714;9.414;2023-10-09T14:12:52;3.85;;;2.33;;
41263;SDS011;26998;48.714;9.414;2023-10-09T14:15:19;4.65;;;2.10;;
41263;SDS011;26998;48.714;9.414;2023-10-09T14:17:47;8.82;;;2.28;;
41263;SDS011;26998;48.714;9.414;2023-10-09T14:20:14;4.78;;;2.28;;
41263;SDS011;26998;48.714;9.414;2023-10-09T14:22:40;6.68;;;2.50;;
41263;SDS011;26998;48.714;9.414;2023-10-09T14:25:07;9.40;;;2.80;;
41263;SDS011;26998;48.714;9.414;2023-10-09T14:27:35;7.00;;;2.05;;
41263;SDS011;26998;48.714;9.414;2023-10-09T14:30:04;8.60;;;2.83;;
41263;SDS011;26998;48.714;9.414;2023-10-09T14:32:34;6.78;;;2.58;;
41263;SDS011;26998;48.714;9.414;2023-10-09T14:35:04;7.30;;;2.75;;
41263;SDS011;26998;48.714;9.414;2023-10-09T14:37:33;3.65;;;2.08;;
41263;SDS011;26998;48.714;9.414;2023-10-09T14:40:02;7.23;;;2.80;;
41263;SDS011;26998;48.714;9.414;2023-10-09T14:42:32;8.35;;;2.72;;
41263;SDS011;26998;48.714;9.414;2023-10-09T14:45:00;3.50;;;1.85;;
41263;SDS011;26998;48.714;9.414;2023-10-09T14:47:29;8.33;;;2.40;;
41263;SDS011;26998;48.714;9.414;2023-10-09T14:49:56;7.43;;;1.95;;
41263;SDS011;26998;48.714;9.414;2023-10-09T14:52:22;6.00;;;1.98;;
41263;SDS011;26998;48.714;9.414;2023-10-09T14:54:49;6.75;;;2.83;;
41263;SDS011;26998;48.714;9.414;2023-10-09T14:57:16;5.28;;;2.53;;
41263;SDS011;26998;48.714;9.414;2023-10-09T14:59:42;4.80;;;2.75;;
41263;SDS011;26998;48.714;9.414;2023-10-09T15:02:09;14.13;;;3.58;;